sensor_id;sensor_type;location;lat;lon;timestamp;P1;durP1;ratioP1;P2;durP2;ratioP2
22160;SDS011;49035;48.812;11.762;2023-09-30T00:00:59;29.83;;;10.88;;
22160;SDS011;49035;48.812;11.762;2023-09-30T00:03:25;28.40;;;11.93;;
22160;SDS011;49035;48.812;11.762;2023-09-30T00:05:51;26.92;;;11.70;;
22160;SDS011;49035;48.812;11.762;2023-09-30T00:08:16;29.00;;;12.52;;
22160;SDS011;49035;48.812;11.762;2023-09-30T00:10:42;32.00;;;12.02;;
22160;SDS011;49035;48.812;11.762;2023-09-30T00:13:07;33.95;;;12.77;;
22160;SDS011;49035;48.812;11.762;2023-09-30T00:15:33;28.27;;;11.70;;
22160;SDS011;49035;48.812;11.762;2023-09-30T00:17:59;28.15;;;11.45;;
22160;SDS011;49035;48.812;11.762;2023-09-30T00:20:26;31.92;;;10.55;;
22160;SDS011;49035;48.812;11.762;2023-09-30T00:22:54;31.23;;;11.88;;
22160;SDS011;49035;48.812;11.762;2023-09-30T00:25:20;29.38;;;11.13;;
22160;SDS011;49035;48.812;11.762;2023-09-30T00:27:46;30.08;;;12.02;;
22160;SDS011;49035;48.812;11.762;2023-09-30T00:30:12;30.25;;;12.02;;
22160;SDS011;49035;48.812;11.762;2023-09-30T00:32:38;29.75;;;11.88;;
22160;SDS011;49035;48.812;11.762;2023-09-30T00:35:04;29.55;;;11.25;;
22160;SDS011;49035;48.812;11.762;2023-09-30T00:37:36;28.67;;;12.50;;
22160;SDS011;49035;48.812;11.762;2023-09-30T00:40:05;31.02;;;12.02;;
22160;SDS011;49035;48.812;11.762;2023-09-30T00:42:31;24.95;;;10.57;;
22160;SDS011;49035;48.812;11.762;2023-09-30T00:44:56;31.67;;;12.65;;
22160;SDS011;49035;48.812;11.762;2023-09-30T00:47:22;28.80;;;11.27;;
22160;SDS011;49035;48.812;11.762;2023-09-30T00:49:49;31.63;;;11.70;;
22160;SDS011;49035;48.812;11.762;2023-09-30T00:52:15;33.67;;;11.65;;
22160;SDS011;49035;48.812;11.762;2023-09-30T00:54:42;29.35;;;11.63;;
22160;SDS011;49035;48.812;11.762;2023-09-30T00:57:09;29.13;;;11.88;;
22160;SDS011;49035;48.812;11.762;2023-09-30T00:59:35;28.80;;;12.18;;
22160;SDS011;49035;48.812;11.762;2023-09-30T01:02:01;27.90;;;11.65;;
22160;SDS011;49035;48.812;11.762;2023-09-30T01:04:27;26.38;;;11.48;;
22160;SDS011;49035;48.812;11.762;2023-09-30T01:06:53;26.90;;;12.25;;
22160;SDS011;49035;48.812;11.762;2023-09-30T01:09:20;28.05;;;10.95;;
22160;SDS011;49035;48.812;11.762;2023-09-30T01:11:45;31.52;;;10.48;;
22160;SDS011;49035;48.812;11.762;2023-09-30T01:14:27;23.83;;;9.48;;
22160;SDS011;49035;48.812;11.762;2023-09-30T01:16:54;29.35;;;10.55;;
22160;SDS011;49035;48.812;11.762;2023-09-30T01:19:20;22.73;;;10.20;;
22160;SDS011;49035;48.812;11.762;2023-09-30T01:21:45;28.70;;;11.07;;
22160;SDS011;49035;48.812;11.762;2023-09-30T01:24:14;27.58;;;10.70;;
22160;SDS011;49035;48.812;11.762;2023-09-30T01:26:40;25.95;;;10.27;;
22160;SDS011;49035;48.812;11.762;2023-09-30T01:29:07;24.08;;;10.10;;
22160;SDS011;49035;48.812;11.762;2023-09-30T01:31:36;26.20;;;10.02;;
22160;SDS011;49035;48.812;11.762;2023-09-30T01:34:03;24.90;;;9.13;;
22160;SDS011;49035;48.812;11.762;2023-09-30T01:36:29;22.15;;;8.45;;
22160;SDS011;49035;48.812;11.762;2023-09-30T01:38:55;23.98;;;8.95;;
22160;SDS011;49035;48.812;11.762;2023-09-30T01:41:20;25.25;;;8.82;;
22160;SDS011;49035;48.812;11.762;2023-09-30T01:43:46;25.60;;;9.18;;
22160;SDS011;49035;48.812;11.762;2023-09-30T01:46:14;21.27;;;8.75;;
22160;SDS011;49035;48.812;11.762;2023-09-30T01:48:40;26.35;;;9.70;;
22160;SDS011;49035;48.812;11.762;2023-09-30T01:51:06;22.00;;;8.10;;
22160;SDS011;49035;48.812;11.762;2023-09-30T01:53:32;19.20;;;7.47;;
22160;SDS011;49035;48.812;11.762;2023-09-30T01:55:58;19.00;;;7.90;;
22160;SDS011;49035;48.812;11.762;2023-09-30T01:58:24;21.50;;;8.57;;
22160;SDS011;49035;48.812;11.762;2023-09-30T02:00:51;21.52;;;7.93;;
22160;SDS011;49035;48.812;11.762;2023-09-30T02:03:17;18.08;;;7.35;;
22160;SDS011;49035;48.812;11.762;2023-09-30T02:05:42;20.48;;;8.68;;
22160;SDS011;49035;48.812;11.762;2023-09-30T02:08:08;18.83;;;7.47;;
22160;SDS011;49035;48.812;11.762;2023-09-30T02:10:34;21.67;;;6.80;;
22160;SDS011;49035;48.812;11.762;2023-09-30T02:13:00;21.75;;;7.93;;
22160;SDS011;49035;48.812;11.762;2023-09-30T02:15:25;18.02;;;6.97;;
22160;SDS011;49035;48.812;11.762;2023-09-30T02:17:51;20.33;;;7.30;;
22160;SDS011;49035;48.812;11.762;2023-09-30T02:20:17;16.95;;;6.95;;
22160;SDS011;49035;48.812;11.762;2023-09-30T02:22:47;18.05;;;6.30;;
22160;SDS011;49035;48.812;11.762;2023-09-30T02:25:13;15.45;;;6.45;;
22160;SDS011;49035;48.812;11.762;2023-09-30T02:27:40;18.23;;;7.30;;
22160;SDS011;49035;48.812;11.762;2023-09-30T02:30:07;19.00;;;6.93;;
22160;SDS011;49035;48.812;11.762;2023-09-30T02:32:34;19.33;;;7.25;;
22160;SDS011;49035;48.812;11.762;2023-09-30T02:34:59;17.85;;;7.03;;
22160;SDS011;49035;48.812;11.762;2023-09-30T02:37:25;20.05;;;7.78;;
22160;SDS011;49035;48.812;11.762;2023-09-30T02:39:50;17.40;;;7.07;;
22160;SDS011;49035;48.812;11.762;2023-09-30T02:42:16;18.45;;;6.82;;
22160;SDS011;49035;48.812;11.762;2023-09-30T02:44:42;21.55;;;6.95;;
22160;SDS011;49035;48.812;11.762;2023-09-30T02:47:07;21.65;;;7.25;;
22160;SDS011;49035;48.812;11.762;2023-09-30T02:49:34;17.17;;;6.70;;
22160;SDS011;49035;48.812;11.762;2023-09-30T02:51:59;17.27;;;7.22;;
22160;SDS011;49035;48.812;11.762;2023-09-30T02:54:25;16.73;;;6.90;;
22160;SDS011;49035;48.812;11.762;2023-09-30T02:56:51;19.65;;;7.40;;
22160;SDS011;49035;48.812;11.762;2023-09-30T02:59:17;18.48;;;6.85;;
22160;SDS011;49035;48.812;11.762;2023-09-30T03:01:43;17.23;;;6.88;;
22160;SDS011;49035;48.812;11.762;2023-09-30T03:04:09;18.73;;;7.30;;
22160;SDS011;49035;48.812;11.762;2023-09-30T03:06:37;20.60;;;7.18;;
22160;SDS011;49035;48.812;11.762;2023-09-30T03:09:04;18.95;;;7.70;;
22160;SDS011;49035;48.812;11.762;2023-09-30T03:11:32;16.58;;;6.32;;
22160;SDS011;49035;48.812;11.762;2023-09-30T03:13:59;17.92;;;7.22;;
22160;SDS011;49035;48.812;11.762;2023-09-30T03:16:24;17.70;;;7.03;;
22160;SDS011;49035;48.812;11.762;2023-09-30T03:18:50;22.38;;;7.15;;
22160;SDS011;49035;48.812;11.762;2023-09-30T03:21:16;17.65;;;6.47;;
22160;SDS011;49035;48.812;11.762;2023-09-30T03:23:42;18.05;;;7.78;;
22160;SDS011;49035;48.812;11.762;2023-09-30T03:26:08;23.65;;;8.40;;
22160;SDS011;49035;48.812;11.762;2023-09-30T03:28:35;22.08;;;7.80;;
22160;SDS011;49035;48.812;11.762;2023-09-30T03:31:03;16.70;;;7.28;;
22160;SDS011;49035;48.812;11.762;2023-09-30T03:33:30;22.42;;;7.78;;
22160;SDS011;49035;48.812;11.762;2023-09-30T03:35:56;26.65;;;6.78;;
22160;SDS011;49035;48.812;11.762;2023-09-30T03:38:23;25.02;;;7.90;;
22160;SDS011;49035;48.812;11.762;2023-09-30T03:40:49;18.27;;;7.47;;
22160;SDS011;49035;48.812;11.762;2023-09-30T03:43:15;17.90;;;7.15;;
22160;SDS011;49035;48.812;11.762;2023-09-30T03:45:41;21.23;;;7.35;;
22160;SDS011;49035;48.812;11.762;2023-09-30T03:48:07;19.13;;;7.53;;
22160;SDS011;49035;48.812;11.762;2023-09-30T03:50:34;17.23;;;6.75;;
22160;SDS011;49035;48.812;11.762;2023-09-30T03:53:00;23.35;;;7.38;;
22160;SDS011;49035;48.812;11.762;2023-09-30T03:55:31;18.35;;;7.18;;
22160;SDS011;49035;48.812;11.762;2023-09-30T03:57:57;21.92;;;7.28;;
22160;SDS011;49035;48.812;11.762;2023-09-30T04:00:23;15.73;;;6.32;;
22160;SDS011;49035;48.812;11.762;2023-09-30T04:02:49;18.88;;;7.60;;
22160;SDS011;49035;48.812;11.762;2023-09-30T04:05:20;19.70;;;7.45;;
22160;SDS011;49035;48.812;11.762;2023-09-30T04:07:57;24.10;;;8.27;;
22160;SDS011;49035;48.812;11.762;2023-09-30T04:10:23;19.10;;;8.48;;
22160;SDS011;49035;48.812;11.762;2023-09-30T04:12:50;17.73;;;6.75;;
22160;SDS011;49035;48.812;11.762;2023-09-30T04:15:16;17.13;;;7.78;;
22160;SDS011;49035;48.812;11.762;2023-09-30T04:17:42;19.83;;;7.53;;
22160;SDS011;49035;48.812;11.762;2023-09-30T04:20:08;17.60;;;7.68;;
22160;SDS011;49035;48.812;11.762;2023-09-30T04:22:36;18.55;;;6.80;;
22160;SDS011;49035;48.812;11.762;2023-09-30T04:25:02;16.95;;;7.05;;
22160;SDS011;49035;48.812;11.762;2023-09-30T04:27:34;19.10;;;7.70;;
22160;SDS011;49035;48.812;11.762;2023-09-30T04:30:00;24.23;;;8.63;;
22160;SDS011;49035;48.812;11.762;2023-09-30T04:32:32;21.77;;;7.15;;
22160;SDS011;49035;48.812;11.762;2023-09-30T04:34:58;19.52;;;7.57;;
22160;SDS011;49035;48.812;11.762;2023-09-30T04:37:25;18.70;;;7.78;;
22160;SDS011;49035;48.812;11.762;2023-09-30T04:39:50;25.20;;;7.68;;
22160;SDS011;49035;48.812;11.762;2023-09-30T04:42:16;19.77;;;7.38;;
22160;SDS011;49035;48.812;11.762;2023-09-30T04:44:42;23.85;;;8.32;;
22160;SDS011;49035;48.812;11.762;2023-09-30T04:47:08;18.63;;;7.05;;
22160;SDS011;49035;48.812;11.762;2023-09-30T04:49:34;19.95;;;8.15;;
22160;SDS011;49035;48.812;11.762;2023-09-30T04:52:00;20.15;;;7.30;;
22160;SDS011;49035;48.812;11.762;2023-09-30T04:54:26;20.05;;;7.70;;
22160;SDS011;49035;48.812;11.762;2023-09-30T04:56:51;15.60;;;6.82;;
22160;SDS011;49035;48.812;11.762;2023-09-30T04:59:17;20.77;;;7.70;;
22160;SDS011;49035;48.812;11.762;2023-09-30T05:01:43;22.85;;;8.20;;
22160;SDS011;49035;48.812;11.762;2023-09-30T05:04:08;24.95;;;8.30;;
22160;SDS011;49035;48.812;11.762;2023-09-30T05:06:34;22.98;;;8.45;;
22160;SDS011;49035;48.812;11.762;2023-09-30T05:09:00;25.45;;;7.72;;
22160;SDS011;49035;48.812;11.762;2023-09-30T05:11:25;22.15;;;8.77;;
22160;SDS011;49035;48.812;11.762;2023-09-30T05:13:51;22.88;;;8.00;;
22160;SDS011;49035;48.812;11.762;2023-09-30T05:16:17;31.25;;;9.75;;
22160;SDS011;49035;48.812;11.762;2023-09-30T05:18:43;20.35;;;8.73;;
22160;SDS011;49035;48.812;11.762;2023-09-30T05:21:09;28.10;;;9.55;;
22160;SDS011;49035;48.812;11.762;2023-09-30T05:23:35;27.30;;;9.32;;
22160;SDS011;49035;48.812;11.762;2023-09-30T05:26:02;26.65;;;9.43;;
22160;SDS011;49035;48.812;11.762;2023-09-30T05:28:27;26.73;;;10.85;;
22160;SDS011;49035;48.812;11.762;2023-09-30T05:30:53;20.65;;;8.93;;
22160;SDS011;49035;48.812;11.762;2023-09-30T05:33:18;24.92;;;9.25;;
22160;SDS011;49035;48.812;11.762;2023-09-30T05:35:44;22.30;;;9.50;;
22160;SDS011;49035;48.812;11.762;2023-09-30T05:38:09;29.65;;;10.27;;
22160;SDS011;49035;48.812;11.762;2023-09-30T05:40:35;28.88;;;9.35;;
22160;SDS011;49035;48.812;11.762;2023-09-30T05:43:01;24.63;;;9.45;;
22160;SDS011;49035;48.812;11.762;2023-09-30T05:45:30;33.30;;;10.32;;
22160;SDS011;49035;48.812;11.762;2023-09-30T05:47:59;23.67;;;9.80;;
22160;SDS011;49035;48.812;11.762;2023-09-30T05:50:29;22.67;;;9.07;;
22160;SDS011;49035;48.812;11.762;2023-09-30T05:52:56;27.35;;;10.45;;
22160;SDS011;49035;48.812;11.762;2023-09-30T05:55:22;26.42;;;9.60;;
22160;SDS011;49035;48.812;11.762;2023-09-30T05:57:50;28.20;;;10.40;;
22160;SDS011;49035;48.812;11.762;2023-09-30T06:00:17;25.10;;;8.95;;
22160;SDS011;49035;48.812;11.762;2023-09-30T06:02:49;31.50;;;10.48;;
22160;SDS011;49035;48.812;11.762;2023-09-30T06:05:16;24.90;;;10.32;;
22160;SDS011;49035;48.812;11.762;2023-09-30T06:07:44;32.58;;;10.88;;
22160;SDS011;49035;48.812;11.762;2023-09-30T06:10:11;30.85;;;10.52;;
22160;SDS011;49035;48.812;11.762;2023-09-30T06:12:37;30.83;;;10.05;;
22160;SDS011;49035;48.812;11.762;2023-09-30T06:15:03;25.52;;;10.15;;
22160;SDS011;49035;48.812;11.762;2023-09-30T06:17:29;26.17;;;9.93;;
22160;SDS011;49035;48.812;11.762;2023-09-30T06:19:56;26.08;;;9.90;;
22160;SDS011;49035;48.812;11.762;2023-09-30T06:22:31;28.40;;;10.68;;
22160;SDS011;49035;48.812;11.762;2023-09-30T06:24:57;27.52;;;9.45;;
22160;SDS011;49035;48.812;11.762;2023-09-30T06:27:23;26.00;;;9.07;;
22160;SDS011;49035;48.812;11.762;2023-09-30T06:29:48;24.13;;;9.48;;
22160;SDS011;49035;48.812;11.762;2023-09-30T06:32:14;25.85;;;9.50;;
22160;SDS011;49035;48.812;11.762;2023-09-30T06:34:40;26.52;;;10.00;;
22160;SDS011;49035;48.812;11.762;2023-09-30T06:37:06;23.70;;;9.85;;
22160;SDS011;49035;48.812;11.762;2023-09-30T06:39:33;21.80;;;9.13;;
22160;SDS011;49035;48.812;11.762;2023-09-30T06:41:59;25.17;;;9.20;;
22160;SDS011;49035;48.812;11.762;2023-09-30T06:44:24;23.98;;;9.02;;
22160;SDS011;49035;48.812;11.762;2023-09-30T06:46:50;21.25;;;8.15;;
22160;SDS011;49035;48.812;11.762;2023-09-30T06:49:16;21.00;;;8.35;;
22160;SDS011;49035;48.812;11.762;2023-09-30T06:51:41;21.20;;;8.02;;
22160;SDS011;49035;48.812;11.762;2023-09-30T06:54:07;19.52;;;8.73;;
22160;SDS011;49035;48.812;11.762;2023-09-30T06:56:33;19.02;;;8.57;;
22160;SDS011;49035;48.812;11.762;2023-09-30T06:58:58;19.42;;;8.07;;
22160;SDS011;49035;48.812;11.762;2023-09-30T07:01:24;17.25;;;6.85;;
22160;SDS011;49035;48.812;11.762;2023-09-30T07:03:50;15.60;;;7.07;;
22160;SDS011;49035;48.812;11.762;2023-09-30T07:06:25;13.38;;;6.68;;
22160;SDS011;49035;48.812;11.762;2023-09-30T07:08:51;11.23;;;5.45;;
22160;SDS011;49035;48.812;11.762;2023-09-30T07:11:26;13.77;;;5.90;;
22160;SDS011;49035;48.812;11.762;2023-09-30T07:13:53;11.23;;;4.65;;
22160;SDS011;49035;48.812;11.762;2023-09-30T07:16:18;10.55;;;5.05;;
22160;SDS011;49035;48.812;11.762;2023-09-30T07:18:44;10.45;;;4.75;;
22160;SDS011;49035;48.812;11.762;2023-09-30T07:21:10;8.35;;;3.58;;
22160;SDS011;49035;48.812;11.762;2023-09-30T07:23:36;9.63;;;3.53;;
22160;SDS011;49035;48.812;11.762;2023-09-30T07:26:02;5.75;;;2.78;;
22160;SDS011;49035;48.812;11.762;2023-09-30T07:28:28;6.05;;;3.03;;
22160;SDS011;49035;48.812;11.762;2023-09-30T07:30:54;5.63;;;2.67;;
22160;SDS011;49035;48.812;11.762;2023-09-30T07:33:20;4.97;;;2.42;;
22160;SDS011;49035;48.812;11.762;2023-09-30T07:35:46;4.00;;;1.80;;
22160;SDS011;49035;48.812;11.762;2023-09-30T07:38:11;3.28;;;1.70;;
22160;SDS011;49035;48.812;11.762;2023-09-30T07:40:37;3.90;;;1.77;;
22160;SDS011;49035;48.812;11.762;2023-09-30T07:43:03;2.75;;;1.45;;
22160;SDS011;49035;48.812;11.762;2023-09-30T07:45:29;3.15;;;1.25;;
22160;SDS011;49035;48.812;11.762;2023-09-30T07:47:54;4.55;;;1.70;;
22160;SDS011;49035;48.812;11.762;2023-09-30T07:50:20;3.78;;;1.15;;
22160;SDS011;49035;48.812;11.762;2023-09-30T07:52:45;5.03;;;1.50;;
22160;SDS011;49035;48.812;11.762;2023-09-30T07:55:11;1.10;;;0.80;;
22160;SDS011;49035;48.812;11.762;2023-09-30T07:57:39;1.10;;;0.60;;
22160;SDS011;49035;48.812;11.762;2023-09-30T08:00:07;0.85;;;0.70;;
22160;SDS011;49035;48.812;11.762;2023-09-30T08:02:34;2.60;;;0.77;;
22160;SDS011;49035;48.812;11.762;2023-09-30T08:05:01;1.40;;;0.93;;
22160;SDS011;49035;48.812;11.762;2023-09-30T08:07:27;0.82;;;0.68;;
22160;SDS011;49035;48.812;11.762;2023-09-30T08:09:53;0.40;;;0.40;;
22160;SDS011;49035;48.812;11.762;2023-09-30T08:12:18;0.47;;;0.47;;
22160;SDS011;49035;48.812;11.762;2023-09-30T08:14:44;0.85;;;0.52;;
22160;SDS011;49035;48.812;11.762;2023-09-30T08:17:10;0.70;;;0.45;;
22160;SDS011;49035;48.812;11.762;2023-09-30T08:19:36;0.38;;;0.38;;
22160;SDS011;49035;48.812;11.762;2023-09-30T08:22:02;1.10;;;0.43;;
22160;SDS011;49035;48.812;11.762;2023-09-30T08:24:31;0.47;;;0.40;;
22160;SDS011;49035;48.812;11.762;2023-09-30T08:26:57;0.40;;;0.32;;
22160;SDS011;49035;48.812;11.762;2023-09-30T08:29:22;0.45;;;0.43;;
22160;SDS011;49035;48.812;11.762;2023-09-30T08:31:48;0.30;;;0.30;;
22160;SDS011;49035;48.812;11.762;2023-09-30T08:34:15;0.30;;;0.30;;
22160;SDS011;49035;48.812;11.762;2023-09-30T08:36:42;0.30;;;0.30;;
22160;SDS011;49035;48.812;11.762;2023-09-30T08:39:08;0.30;;;0.30;;
22160;SDS011;49035;48.812;11.762;2023-09-30T08:41:35;0.20;;;0.20;;
22160;SDS011;49035;48.812;11.762;2023-09-30T08:44:02;0.50;;;0.30;;
22160;SDS011;49035;48.812;11.762;2023-09-30T08:46:35;0.38;;;0.38;;
22160;SDS011;49035;48.812;11.762;2023-09-30T08:49:01;1.10;;;0.40;;
22160;SDS011;49035;48.812;11.762;2023-09-30T08:51:28;2.05;;;0.30;;
22160;SDS011;49035;48.812;11.762;2023-09-30T08:53:55;0.50;;;0.40;;
22160;SDS011;49035;48.812;11.762;2023-09-30T08:56:24;0.20;;;0.20;;
22160;SDS011;49035;48.812;11.762;2023-09-30T08:58:54;0.25;;;0.25;;
22160;SDS011;49035;48.812;11.762;2023-09-30T09:01:23;0.30;;;0.30;;
22160;SDS011;49035;48.812;11.762;2023-09-30T09:03:50;0.38;;;0.38;;
22160;SDS011;49035;48.812;11.762;2023-09-30T09:06:18;0.55;;;0.40;;
22160;SDS011;49035;48.812;11.762;2023-09-30T09:08:45;0.20;;;0.20;;
22160;SDS011;49035;48.812;11.762;2023-09-30T09:11:12;0.38;;;0.38;;
22160;SDS011;49035;48.812;11.762;2023-09-30T09:13:52;0.38;;;0.35;;
22160;SDS011;49035;48.812;11.762;2023-09-30T09:16:21;0.28;;;0.28;;
22160;SDS011;49035;48.812;11.762;2023-09-30T09:18:48;0.32;;;0.32;;
22160;SDS011;49035;48.812;11.762;2023-09-30T09:21:15;0.40;;;0.40;;
22160;SDS011;49035;48.812;11.762;2023-09-30T09:23:49;0.45;;;0.45;;
22160;SDS011;49035;48.812;11.762;2023-09-30T09:26:26;0.60;;;0.60;;
22160;SDS011;49035;48.812;11.762;2023-09-30T09:28:56;1.33;;;0.50;;
22160;SDS011;49035;48.812;11.762;2023-09-30T09:31:26;0.50;;;0.50;;
22160;SDS011;49035;48.812;11.762;2023-09-30T09:34:00;0.38;;;0.38;;
22160;SDS011;49035;48.812;11.762;2023-09-30T09:36:39;0.52;;;0.52;;
22160;SDS011;49035;48.812;11.762;2023-09-30T09:39:06;0.40;;;0.40;;
22160;SDS011;49035;48.812;11.762;2023-09-30T09:41:32;0.70;;;0.40;;
22160;SDS011;49035;48.812;11.762;2023-09-30T09:43:58;1.88;;;0.60;;
22160;SDS011;49035;48.812;11.762;2023-09-30T09:46:24;0.98;;;0.65;;
22160;SDS011;49035;48.812;11.762;2023-09-30T09:48:52;0.55;;;0.55;;
22160;SDS011;49035;48.812;11.762;2023-09-30T09:51:19;2.30;;;0.70;;
22160;SDS011;49035;48.812;11.762;2023-09-30T09:53:46;2.25;;;0.82;;
22160;SDS011;49035;48.812;11.762;2023-09-30T09:56:15;1.00;;;0.85;;
22160;SDS011;49035;48.812;11.762;2023-09-30T09:58:42;1.00;;;0.60;;
22160;SDS011;49035;48.812;11.762;2023-09-30T10:01:09;1.50;;;0.90;;
22160;SDS011;49035;48.812;11.762;2023-09-30T10:03:35;2.40;;;1.00;;
22160;SDS011;49035;48.812;11.762;2023-09-30T10:06:01;0.82;;;0.68;;
22160;SDS011;49035;48.812;11.762;2023-09-30T10:08:32;1.40;;;0.85;;
22160;SDS011;49035;48.812;11.762;2023-09-30T10:11:01;1.00;;;0.73;;
22160;SDS011;49035;48.812;11.762;2023-09-30T10:19:09;2.03;;;0.90;;
22160;SDS011;49035;48.812;11.762;2023-09-30T10:21:35;2.30;;;1.10;;
22160;SDS011;49035;48.812;11.762;2023-09-30T10:37:46;1.85;;;1.13;;
22160;SDS011;49035;48.812;11.762;2023-09-30T10:40:29;1.77;;;1.30;;
22160;SDS011;49035;48.812;11.762;2023-09-30T10:42:56;1.98;;;1.35;;
22160;SDS011;49035;48.812;11.762;2023-09-30T10:50:51;4.18;;;1.33;;
22160;SDS011;49035;48.812;11.762;2023-09-30T10:53:18;4.38;;;1.58;;
22160;SDS011;49035;48.812;11.762;2023-09-30T10:55:45;4.55;;;1.67;;
22160;SDS011;49035;48.812;11.762;2023-09-30T10:58:12;3.35;;;1.60;;
22160;SDS011;49035;48.812;11.762;2023-09-30T11:00:38;4.32;;;1.80;;
22160;SDS011;49035;48.812;11.762;2023-09-30T11:03:04;3.85;;;1.88;;
22160;SDS011;49035;48.812;11.762;2023-09-30T11:05:31;2.95;;;1.73;;
22160;SDS011;49035;48.812;11.762;2023-09-30T11:07:59;4.28;;;2.13;;
22160;SDS011;49035;48.812;11.762;2023-09-30T11:10:28;3.00;;;1.75;;
22160;SDS011;49035;48.812;11.762;2023-09-30T11:12:57;5.97;;;2.08;;
22160;SDS011;49035;48.812;11.762;2023-09-30T11:15:24;4.80;;;2.10;;
22160;SDS011;49035;48.812;11.762;2023-09-30T11:17:51;4.53;;;2.80;;
22160;SDS011;49035;48.812;11.762;2023-09-30T11:20:17;4.05;;;2.20;;
22160;SDS011;49035;48.812;11.762;2023-09-30T11:22:44;4.47;;;2.13;;
22160;SDS011;49035;48.812;11.762;2023-09-30T11:25:17;5.40;;;2.60;;
22160;SDS011;49035;48.812;11.762;2023-09-30T11:27:44;6.80;;;2.50;;
22160;SDS011;49035;48.812;11.762;2023-09-30T11:30:11;4.85;;;2.40;;
22160;SDS011;49035;48.812;11.762;2023-09-30T11:32:37;4.80;;;2.83;;
22160;SDS011;49035;48.812;11.762;2023-09-30T11:35:08;4.97;;;2.40;;
22160;SDS011;49035;48.812;11.762;2023-09-30T11:37:35;4.97;;;2.65;;
22160;SDS011;49035;48.812;11.762;2023-09-30T11:40:11;6.00;;;3.15;;
22160;SDS011;49035;48.812;11.762;2023-09-30T11:42:41;4.57;;;2.72;;
22160;SDS011;49035;48.812;11.762;2023-09-30T11:45:20;5.85;;;2.83;;
22160;SDS011;49035;48.812;11.762;2023-09-30T11:47:49;6.70;;;2.80;;
22160;SDS011;49035;48.812;11.762;2023-09-30T11:50:15;7.05;;;2.85;;
22160;SDS011;49035;48.812;11.762;2023-09-30T11:52:43;5.07;;;2.72;;
22160;SDS011;49035;48.812;11.762;2023-09-30T11:55:11;6.03;;;2.80;;
22160;SDS011;49035;48.812;11.762;2023-09-30T11:57:37;4.85;;;3.00;;
22160;SDS011;49035;48.812;11.762;2023-09-30T12:00:04;4.93;;;2.92;;
22160;SDS011;49035;48.812;11.762;2023-09-30T12:02:38;6.10;;;3.03;;
22160;SDS011;49035;48.812;11.762;2023-09-30T12:05:05;5.13;;;3.33;;
22160;SDS011;49035;48.812;11.762;2023-09-30T12:07:36;9.02;;;3.60;;
22160;SDS011;49035;48.812;11.762;2023-09-30T12:10:02;7.57;;;3.25;;
22160;SDS011;49035;48.812;11.762;2023-09-30T12:12:28;8.50;;;4.00;;
22160;SDS011;49035;48.812;11.762;2023-09-30T12:14:53;9.80;;;3.90;;
22160;SDS011;49035;48.812;11.762;2023-09-30T12:17:20;7.15;;;3.05;;
22160;SDS011;49035;48.812;11.762;2023-09-30T12:19:47;7.07;;;3.53;;
22160;SDS011;49035;48.812;11.762;2023-09-30T12:22:13;8.45;;;3.70;;
22160;SDS011;49035;48.812;11.762;2023-09-30T12:24:39;5.53;;;3.03;;
22160;SDS011;49035;48.812;11.762;2023-09-30T12:27:04;10.00;;;4.00;;
22160;SDS011;49035;48.812;11.762;2023-09-30T12:29:30;5.50;;;3.08;;
22160;SDS011;49035;48.812;11.762;2023-09-30T12:31:56;7.78;;;3.45;;
22160;SDS011;49035;48.812;11.762;2023-09-30T12:34:22;7.38;;;3.90;;
22160;SDS011;49035;48.812;11.762;2023-09-30T12:36:51;6.65;;;3.28;;
22160;SDS011;49035;48.812;11.762;2023-09-30T12:39:17;7.85;;;3.58;;
22160;SDS011;49035;48.812;11.762;2023-09-30T12:41:48;7.97;;;3.80;;
22160;SDS011;49035;48.812;11.762;2023-09-30T12:44:14;7.00;;;3.40;;
22160;SDS011;49035;48.812;11.762;2023-09-30T12:46:40;6.78;;;3.17;;
22160;SDS011;49035;48.812;11.762;2023-09-30T12:49:06;8.63;;;2.88;;
22160;SDS011;49035;48.812;11.762;2023-09-30T12:51:32;10.63;;;3.75;;
22160;SDS011;49035;48.812;11.762;2023-09-30T12:53:58;6.88;;;3.50;;
22160;SDS011;49035;48.812;11.762;2023-09-30T12:56:24;10.60;;;4.03;;
22160;SDS011;49035;48.812;11.762;2023-09-30T12:58:50;5.45;;;3.42;;
22160;SDS011;49035;48.812;11.762;2023-09-30T13:01:16;7.22;;;3.38;;
22160;SDS011;49035;48.812;11.762;2023-09-30T13:03:43;6.20;;;3.17;;
22160;SDS011;49035;48.812;11.762;2023-09-30T13:06:09;7.10;;;3.25;;
22160;SDS011;49035;48.812;11.762;2023-09-30T13:08:35;8.80;;;3.60;;
22160;SDS011;49035;48.812;11.762;2023-09-30T13:11:01;6.35;;;3.35;;
22160;SDS011;49035;48.812;11.762;2023-09-30T13:13:28;6.85;;;4.00;;
22160;SDS011;49035;48.812;11.762;2023-09-30T13:15:55;8.35;;;3.33;;
22160;SDS011;49035;48.812;11.762;2023-09-30T13:18:22;8.73;;;4.53;;
22160;SDS011;49035;48.812;11.762;2023-09-30T13:20:48;6.70;;;3.65;;
22160;SDS011;49035;48.812;11.762;2023-09-30T13:23:13;9.70;;;4.53;;
22160;SDS011;49035;48.812;11.762;2023-09-30T13:25:39;6.93;;;4.03;;
22160;SDS011;49035;48.812;11.762;2023-09-30T13:28:05;9.55;;;4.47;;
22160;SDS011;49035;48.812;11.762;2023-09-30T13:30:30;8.65;;;4.03;;
22160;SDS011;49035;48.812;11.762;2023-09-30T13:32:57;7.78;;;3.97;;
22160;SDS011;49035;48.812;11.762;2023-09-30T13:35:22;8.85;;;4.30;;
22160;SDS011;49035;48.812;11.762;2023-09-30T13:37:48;7.43;;;3.95;;
22160;SDS011;49035;48.812;11.762;2023-09-30T13:40:14;12.68;;;3.88;;
22160;SDS011;49035;48.812;11.762;2023-09-30T13:42:39;8.57;;;3.95;;
22160;SDS011;49035;48.812;11.762;2023-09-30T13:45:05;10.13;;;4.13;;
22160;SDS011;49035;48.812;11.762;2023-09-30T13:47:32;7.47;;;4.18;;
22160;SDS011;49035;48.812;11.762;2023-09-30T13:49:58;9.27;;;3.85;;
22160;SDS011;49035;48.812;11.762;2023-09-30T13:52:25;7.95;;;3.80;;
22160;SDS011;49035;48.812;11.762;2023-09-30T13:54:51;9.52;;;3.97;;
22160;SDS011;49035;48.812;11.762;2023-09-30T13:57:16;7.25;;;3.53;;
22160;SDS011;49035;48.812;11.762;2023-09-30T13:59:42;11.27;;;4.22;;
22160;SDS011;49035;48.812;11.762;2023-09-30T14:02:07;10.52;;;4.82;;
22160;SDS011;49035;48.812;11.762;2023-09-30T14:04:33;7.38;;;3.88;;
22160;SDS011;49035;48.812;11.762;2023-09-30T14:07:01;10.07;;;4.18;;
22160;SDS011;49035;48.812;11.762;2023-09-30T14:09:28;9.85;;;4.07;;
22160;SDS011;49035;48.812;11.762;2023-09-30T14:11:54;7.05;;;3.97;;
22160;SDS011;49035;48.812;11.762;2023-09-30T14:14:20;6.97;;;4.05;;
22160;SDS011;49035;48.812;11.762;2023-09-30T14:16:46;10.35;;;4.30;;
22160;SDS011;49035;48.812;11.762;2023-09-30T14:19:12;9.65;;;4.43;;
22160;SDS011;49035;48.812;11.762;2023-09-30T14:21:38;10.15;;;4.43;;
22160;SDS011;49035;48.812;11.762;2023-09-30T14:24:07;7.35;;;4.15;;
22160;SDS011;49035;48.812;11.762;2023-09-30T14:26:33;12.05;;;4.65;;
22160;SDS011;49035;48.812;11.762;2023-09-30T14:28:59;7.13;;;3.78;;
22160;SDS011;49035;48.812;11.762;2023-09-30T14:31:25;7.80;;;3.75;;
22160;SDS011;49035;48.812;11.762;2023-09-30T14:33:51;8.50;;;3.95;;
22160;SDS011;49035;48.812;11.762;2023-09-30T14:36:16;7.63;;;3.78;;
22160;SDS011;49035;48.812;11.762;2023-09-30T14:38:43;9.45;;;4.18;;
22160;SDS011;49035;48.812;11.762;2023-09-30T14:41:12;11.23;;;4.68;;
22160;SDS011;49035;48.812;11.762;2023-09-30T14:43:38;6.32;;;3.45;;
22160;SDS011;49035;48.812;11.762;2023-09-30T14:46:04;10.60;;;4.80;;
22160;SDS011;49035;48.812;11.762;2023-09-30T14:48:30;10.65;;;4.70;;